sensor_id;sensor_type;location;lat;lon;timestamp;pressure;altitude;pressure_sealevel;temperature;humidity
34921;BME280;21128;50.016;20.002;2024-03-23T00:52:11;98199.57;;;11.18;77.35
34921;BME280;21128;50.016;20.002;2024-03-23T00:54:37;98193.55;;;11.15;77.70
34921;BME280;21128;50.016;20.002;2024-03-23T00:57:04;98189.51;;;11.12;77.28
34921;BME280;21128;50.016;20.002;2024-03-23T00:59:31;98190.77;;;11.10;77.77
34921;BME280;21128;50.016;20.002;2024-03-23T01:01:57;98193.94;;;11.07;77.59
34921;BME280;21128;50.016;20.002;2024-03-23T01:04:24;98190.41;;;11.05;77.55
34921;BME280;21128;50.016;20.002;2024-03-23T01:06:51;98190.73;;;11.04;77.84
34921;BME280;21128;50.016;20.002;2024-03-23T01:09:17;98189.36;;;11.02;77.92
34921;BME280;21128;50.016;20.002;2024-03-23T01:11:44;98189.34;;;10.98;78.38
34921;BME280;21128;50.016;20.002;2024-03-23T01:14:11;98185.07;;;10.96;78.71
34921;BME280;21128;50.016;20.002;2024-03-23T01:16:38;98184.96;;;10.93;79.11
34921;BME280;21128;50.016;20.002;2024-03-23T01:19:07;98179.69;;;10.90;79.61
34921;BME280;21128;50.016;20.002;2024-03-23T01:21:34;98175.98;;;10.87;80.06
34921;BME280;21128;50.016;20.002;2024-03-23T01:24:00;98171.73;;;10.84;79.88
34921;BME280;21128;50.016;20.002;2024-03-23T01:26:27;98169.28;;;10.81;80.38
34921;BME280;21128;50.016;20.002;2024-03-23T01:28:54;98164.98;;;10.79;81.19
34921;BME280;21128;50.016;20.002;2024-03-23T01:31:21;98166.25;;;10.77;81.89
34921;BME280;21128;50.016;20.002;2024-03-23T01:33:48;98163.86;;;10.74;81.66
34921;BME280;21128;50.016;20.002;2024-03-23T01:36:15;98157.92;;;10.71;82.49
34921;BME280;21128;50.016;20.002;2024-03-23T01:38:41;98161.27;;;10.67;82.78
34921;BME280;21128;50.016;20.002;2024-03-23T01:41:08;98158.78;;;10.62;83.58
34921;BME280;21128;50.016;20.002;2024-03-23T01:43:35;98157.68;;;10.59;84.16
34921;BME280;21128;50.016;20.002;2024-03-23T01:46:02;98153.50;;;10.56;84.73
34921;BME280;21128;50.016;20.002;2024-03-23T01:48:28;98150.02;;;10.52;85.38
34921;BME280;21128;50.016;20.002;2024-03-23T01:50:55;98149.48;;;10.49;85.50
34921;BME280;21128;50.016;20.002;2024-03-23T01:53:22;98148.41;;;10.46;86.09
34921;BME280;21128;50.016;20.002;2024-03-23T01:55:50;98148.66;;;10.43;86.50
34921;BME280;21128;50.016;20.002;2024-03-23T01:58:17;98147.90;;;10.42;86.87
34921;BME280;21128;50.016;20.002;2024-03-23T02:00:44;98146.04;;;10.41;87.37
34921;BME280;21128;50.016;20.002;2024-03-23T02:03:27;98148.34;;;10.41;87.86
34921;BME280;21128;50.016;20.002;2024-03-23T02:05:54;98146.23;;;10.38;88.30
34921;BME280;21128;50.016;20.002;2024-03-23T02:08:22;98153.02;;;10.33;88.03
34921;BME280;21128;50.016;20.002;2024-03-23T02:10:50;98147.73;;;10.27;88.47
34921;BME280;21128;50.016;20.002;2024-03-23T02:13:20;98140.61;;;10.21;88.67
34921;BME280;21128;50.016;20.002;2024-03-23T02:15:47;98144.03;;;10.17;89.20
34921;BME280;21128;50.016;20.002;2024-03-23T02:18:14;98140.41;;;10.13;89.92
34921;BME280;21128;50.016;20.002;2024-03-23T02:20:41;98133.59;;;10.08;90.36
34921;BME280;21128;50.016;20.002;2024-03-23T02:23:15;98127.10;;;10.03;91.01
34921;BME280;21128;50.016;20.002;2024-03-23T02:25:42;98127.80;;;10.01;91.52
34921;BME280;21128;50.016;20.002;2024-03-23T02:28:09;98125.06;;;10.00;91.80
34921;BME280;21128;50.016;20.002;2024-03-23T02:30:36;98120.20;;;10.00;92.35
34921;BME280;21128;50.016;20.002;2024-03-23T02:33:03;98114.46;;;10.01;92.79
34921;BME280;21128;50.016;20.002;2024-03-23T02:35:30;98113.55;;;10.02;93.34
34921;BME280;21128;50.016;20.002;2024-03-23T02:37:58;98104.23;;;10.02;93.49
34921;BME280;21128;50.016;20.002;2024-03-23T02:40:25;98106.14;;;10.02;93.85
34921;BME280;21128;50.016;20.002;2024-03-23T02:42:52;98106.09;;;10.01;94.19
34921;BME280;21128;50.016;20.002;2024-03-23T02:45:19;98107.51;;;9.99;94.41
34921;BME280;21128;50.016;20.002;2024-03-23T02:47:46;98106.95;;;9.99;94.75
34921;BME280;21128;50.016;20.002;2024-03-23T02:50:13;98107.25;;;10.02;95.04
34921;BME280;21128;50.016;20.002;2024-03-23T02:52:41;98106.80;;;10.03;95.57
34921;BME280;21128;50.016;20.002;2024-03-23T02:55:08;98106.20;;;10.02;95.63
34921;BME280;21128;50.016;20.002;2024-03-23T02:57:34;98100.38;;;10.00;95.83
34921;BME280;21128;50.016;20.002;2024-03-23T03:00:01;98096.88;;;9.98;95.79
34921;BME280;21128;50.016;20.002;2024-03-23T03:02:28;98096.48;;;9.97;95.84
34921;BME280;21128;50.016;20.002;2024-03-23T03:04:55;98095.99;;;9.97;95.93
34921;BME280;21128;50.016;20.002;2024-03-23T03:07:22;98097.23;;;9.97;95.69
34921;BME280;21128;50.016;20.002;2024-03-23T03:09:49;98095.17;;;9.97;95.75
34921;BME280;21128;50.016;20.002;2024-03-23T03:12:16;98101.63;;;9.97;96.07
34921;BME280;21128;50.016;20.002;2024-03-23T03:14:43;98096.36;;;9.97;96.10
34921;BME280;21128;50.016;20.002;2024-03-23T03:17:10;98097.67;;;9.98;95.93
34921;BME280;21128;50.016;20.002;2024-03-23T03:19:37;98093.83;;;9.99;95.87
34921;BME280;21128;50.016;20.002;2024-03-23T03:22:04;98085.46;;;9.99;95.92
34921;BME280;21128;50.016;20.002;2024-03-23T03:24:31;98077.07;;;9.98;96.36
34921;BME280;21128;50.016;20.002;2024-03-23T03:26:58;98073.55;;;9.94;96.30
34921;BME280;21128;50.016;20.002;2024-03-23T03:29:27;98069.54;;;9.93;96.07
34921;BME280;21128;50.016;20.002;2024-03-23T03:32:00;98064.76;;;9.91;95.92
34921;BME280;21128;50.016;20.002;2024-03-23T03:34:27;98059.14;;;9.89;96.07
34921;BME280;21128;50.016;20.002;2024-03-23T03:36:57;98058.02;;;9.88;95.79
34921;BME280;21128;50.016;20.002;2024-03-23T03:39:24;98061.50;;;9.87;95.87
34921;BME280;21128;50.016;20.002;2024-03-23T03:41:52;98055.83;;;9.86;96.01
34921;BME280;21128;50.016;20.002;2024-03-23T03:44:18;98054.09;;;9.86;96.17
34921;BME280;21128;50.016;20.002;2024-03-23T03:46:45;98054.85;;;9.85;96.18
34921;BME280;21128;50.016;20.002;2024-03-23T03:49:12;98054.96;;;9.85;96.19
34921;BME280;21128;50.016;20.002;2024-03-23T03:51:38;98049.98;;;9.85;96.16
34921;BME280;21128;50.016;20.002;2024-03-23T03:54:05;98044.30;;;9.84;96.20
34921;BME280;21128;50.016;20.002;2024-03-23T03:56:33;98040.74;;;9.83;96.20
34921;BME280;21128;50.016;20.002;2024-03-23T03:58:59;98037.36;;;9.81;96.18
34921;BME280;21128;50.016;20.002;2024-03-23T04:01:26;98033.23;;;9.81;96.03
34921;BME280;21128;50.016;20.002;2024-03-23T04:03:53;98028.92;;;9.79;96.17
34921;BME280;21128;50.016;20.002;2024-03-23T04:06:20;98027.33;;;9.77;95.85
34921;BME280;21128;50.016;20.002;2024-03-23T04:08:46;98029.88;;;9.75;96.03
34921;BME280;21128;50.016;20.002;2024-03-23T04:11:13;98030.49;;;9.72;95.82
34921;BME280;21128;50.016;20.002;2024-03-23T04:13:40;98028.34;;;9.68;95.81
34921;BME280;21128;50.016;20.002;2024-03-23T04:16:08;98023.40;;;9.65;95.75
34921;BME280;21128;50.016;20.002;2024-03-23T04:18:36;98031.14;;;9.62;95.93
34921;BME280;21128;50.016;20.002;2024-03-23T04:21:03;98034.18;;;9.62;95.92
34921;BME280;21128;50.016;20.002;2024-03-23T04:23:30;98032.55;;;9.62;95.72
34921;BME280;21128;50.016;20.002;2024-03-23T04:26:03;98026.55;;;9.65;95.91
34921;BME280;21128;50.016;20.002;2024-03-23T04:28:30;98033.48;;;9.67;95.66
34921;BME280;21128;50.016;20.002;2024-03-23T04:30:56;98026.69;;;9.70;95.58
34921;BME280;21128;50.016;20.002;2024-03-23T04:33:23;98029.38;;;9.73;95.39
34921;BME280;21128;50.016;20.002;2024-03-23T04:35:50;98033.36;;;9.75;95.43
34921;BME280;21128;50.016;20.002;2024-03-23T04:38:16;98023.19;;;9.77;95.24
34921;BME280;21128;50.016;20.002;2024-03-23T04:40:43;98025.02;;;9.79;95.34
34921;BME280;21128;50.016;20.002;2024-03-23T04:43:10;98025.91;;;9.81;95.65
34921;BME280;21128;50.016;20.002;2024-03-23T04:45:36;98024.04;;;9.82;95.41
34921;BME280;21128;50.016;20.002;2024-03-23T04:48:03;98021.33;;;9.83;95.11
34921;BME280;21128;50.016;20.002;2024-03-23T04:50:30;98014.80;;;9.85;94.92
34921;BME280;21128;50.016;20.002;2024-03-23T04:52:57;98010.70;;;9.86;95.09
34921;BME280;21128;50.016;20.002;2024-03-23T04:55:23;98010.63;;;9.86;94.97
34921;BME280;21128;50.016;20.002;2024-03-23T04:57:50;98004.63;;;9.87;94.80
34921;BME280;21128;50.016;20.002;2024-03-23T05:00:17;97998.48;;;9.87;95.03
34921;BME280;21128;50.016;20.002;2024-03-23T05:02:45;97996.98;;;9.88;95.16
34921;BME280;21128;50.016;20.002;2024-03-23T05:05:12;97999.77;;;9.88;95.60
34921;BME280;21128;50.016;20.002;2024-03-23T05:07:39;98001.90;;;9.88;96.07
34921;BME280;21128;50.016;20.002;2024-03-23T05:10:06;97997.02;;;9.86;96.18
34921;BME280;21128;50.016;20.002;2024-03-23T05:12:37;97996.54;;;9.86;96.24
34921;BME280;21128;50.016;20.002;2024-03-23T05:15:05;98000.83;;;9.86;96.69
34921;BME280;21128;50.016;20.002;2024-03-23T05:17:32;97997.58;;;9.86;97.09
34921;BME280;21128;50.016;20.002;2024-03-23T05:20:00;97996.58;;;9.84;97.26
34921;BME280;21128;50.016;20.002;2024-03-23T05:22:27;97989.17;;;9.81;97.98
34921;BME280;21128;50.016;20.002;2024-03-23T05:24:53;97984.61;;;9.81;98.48
34921;BME280;21128;50.016;20.002;2024-03-23T05:27:20;97982.69;;;9.81;98.92
34921;BME280;21128;50.016;20.002;2024-03-23T05:29:47;97980.72;;;9.81;99.58
34921;BME280;21128;50.016;20.002;2024-03-23T05:32:14;97981.38;;;9.80;99.69
34921;BME280;21128;50.016;20.002;2024-03-23T05:34:44;97983.47;;;9.79;99.82
34921;BME280;21128;50.016;20.002;2024-03-23T05:37:10;97981.94;;;9.77;99.97
34921;BME280;21128;50.016;20.002;2024-03-23T05:39:37;97967.30;;;9.76;100.00
34921;BME280;21128;50.016;20.002;2024-03-23T05:42:04;97954.36;;;9.76;100.00
34921;BME280;21128;50.016;20.002;2024-03-23T05:44:31;97966.16;;;9.73;100.00
34921;BME280;21128;50.016;20.002;2024-03-23T05:46:58;97963.77;;;9.73;100.00
34921;BME280;21128;50.016;20.002;2024-03-23T05:49:24;97962.71;;;9.73;100.00
34921;BME280;21128;50.016;20.002;2024-03-23T05:51:51;97967.77;;;9.71;100.00
34921;BME280;21128;50.016;20.002;2024-03-23T05:54:18;97957.10;;;9.71;100.00
34921;BME280;21128;50.016;20.002;2024-03-23T05:56:44;97950.41;;;9.73;100.00
34921;BME280;21128;50.016;20.002;2024-03-23T05:59:11;97952.31;;;9.75;100.00
34921;BME280;21128;50.016;20.002;2024-03-23T06:01:38;97955.27;;;9.79;100.00
34921;BME280;21128;50.016;20.002;2024-03-23T06:04:05;97949.33;;;9.80;100.00
34921;BME280;21128;50.016;20.002;2024-03-23T06:06:33;97947.56;;;9.82;100.00
34921;BME280;21128;50.016;20.002;2024-03-23T06:08:59;97954.68;;;9.83;100.00
34921;BME280;21128;50.016;20.002;2024-03-23T06:11:26;97953.95;;;9.83;100.00
34921;BME280;21128;50.016;20.002;2024-03-23T06:13:53;97953.17;;;9.82;100.00
34921;BME280;21128;50.016;20.002;2024-03-23T06:16:19;97947.52;;;9.83;100.00
34921;BME280;21128;50.016;20.002;2024-03-23T06:18:50;97941.66;;;9.85;100.00
34921;BME280;21128;50.016;20.002;2024-03-23T06:21:17;97935.95;;;9.86;100.00
34921;BME280;21128;50.016;20.002;2024-03-23T06:23:45;97936.63;;;9.86;100.00
34921;BME280;21128;50.016;20.002;2024-03-23T06:26:19;97931.50;;;9.83;100.00
34921;BME280;21128;50.016;20.002;2024-03-23T06:28:47;97930.16;;;9.83;100.00
34921;BME280;21128;50.016;20.002;2024-03-23T06:31:13;97924.48;;;9.84;100.00
34921;BME280;21128;50.016;20.002;2024-03-23T06:33:40;97915.88;;;9.86;100.00
34921;BME280;21128;50.016;20.002;2024-03-23T06:36:10;97921.58;;;9.88;100.00
34921;BME280;21128;50.016;20.002;2024-03-23T06:38:37;97919.02;;;9.91;100.00
34921;BME280;21128;50.016;20.002;2024-03-23T06:41:05;97923.67;;;9.94;100.00
34921;BME280;21128;50.016;20.002;2024-03-23T06:43:32;97920.83;;;9.94;100.00
34921;BME280;21128;50.016;20.002;2024-03-23T06:45:59;97923.45;;;9.94;100.00
34921;BME280;21128;50.016;20.002;2024-03-23T06:48:26;97921.41;;;9.94;100.00
34921;BME280;21128;50.016;20.002;2024-03-23T06:50:56;97916.74;;;9.96;100.00
34921;BME280;21128;50.016;20.002;2024-03-23T06:53:24;97924.81;;;10.03;100.00
34921;BME280;21128;50.016;20.002;2024-03-23T06:55:52;97926.52;;;10.10;100.00
34921;BME280;21128;50.016;20.002;2024-03-23T06:58:20;97922.06;;;10.15;100.00
34921;BME280;21128;50.016;20.002;2024-03-23T07:00:48;97922.35;;;10.21;100.00
34921;BME280;21128;50.016;20.002;2024-03-23T07:03:16;97917.48;;;10.29;100.00
34921;BME280;21128;50.016;20.002;2024-03-23T07:05:43;97919.17;;;10.38;100.00
34921;BME280;21128;50.016;20.002;2024-03-23T07:08:10;97903.23;;;10.41;100.00
34921;BME280;21128;50.016;20.002;2024-03-23T07:10:40;97905.10;;;10.45;100.00
34921;BME280;21128;50.016;20.002;2024-03-23T07:13:07;97910.05;;;10.48;100.00
34921;BME280;21128;50.016;20.002;2024-03-23T07:15:34;97905.02;;;10.48;100.00
34921;BME280;21128;50.016;20.002;2024-03-23T07:18:00;97904.64;;;10.48;100.00
34921;BME280;21128;50.016;20.002;2024-03-23T07:20:27;97898.90;;;10.53;100.00
34921;BME280;21128;50.016;20.002;2024-03-23T07:22:56;97899.67;;;10.58;100.00
34921;BME280;21128;50.016;20.002;2024-03-23T07:25:23;97905.67;;;10.64;100.00
34921;BME280;21128;50.016;20.002;2024-03-23T07:27:53;97900.72;;;10.74;100.00
34921;BME280;21128;50.016;20.002;2024-03-23T07:30:20;97903.73;;;10.84;100.00
34921;BME280;21128;50.016;20.002;2024-03-23T07:32:46;97903.64;;;10.91;100.00
34921;BME280;21128;50.016;20.002;2024-03-23T07:35:14;97892.84;;;10.97;100.00
34921;BME280;21128;50.016;20.002;2024-03-23T07:37:41;97896.59;;;11.06;100.00
34921;BME280;21128;50.016;20.002;2024-03-23T07:40:09;97898.80;;;11.15;100.00
34921;BME280;21128;50.016;20.002;2024-03-23T07:42:36;97895.98;;;11.22;100.00
34921;BME280;21128;50.016;20.002;2024-03-23T07:45:03;97887.45;;;11.30;100.00
34921;BME280;21128;50.016;20.002;2024-03-23T07:47:30;97882.83;;;11.37;100.00
34921;BME280;21128;50.016;20.002;2024-03-23T07:49:57;97882.61;;;11.42;100.00
34921;BME280;21128;50.016;20.002;2024-03-23T07:52:24;97878.71;;;11.47;100.00
34921;BME280;21128;50.016;20.002;2024-03-23T07:54:50;97874.30;;;11.53;100.00
34921;BME280;21128;50.016;20.002;2024-03-23T07:57:17;97872.31;;;11.65;100.00
34921;BME280;21128;50.016;20.002;2024-03-23T07:59:44;97863.78;;;11.81;100.00
34921;BME280;21128;50.016;20.002;2024-03-23T08:02:10;97856.30;;;11.98;100.00
34921;BME280;21128;50.016;20.002;2024-03-23T08:04:38;97856.91;;;12.05;99.72
34921;BME280;21128;50.016;20.002;2024-03-23T08:07:04;97850.94;;;12.06;99.35
34921;BME280;21128;50.016;20.002;2024-03-23T08:09:31;97835.25;;;12.13;99.47
34921;BME280;21128;50.016;20.002;2024-03-23T08:11:58;97822.27;;;12.24;98.87
34921;BME280;21128;50.016;20.002;2024-03-23T08:14:24;97820.44;;;12.31;98.29
34921;BME280;21128;50.016;20.002;2024-03-23T08:16:51;97819.33;;;12.37;98.33
34921;BME280;21128;50.016;20.002;2024-03-23T08:19:18;97814.97;;;12.49;98.22
34921;BME280;21128;50.016;20.002;2024-03-23T08:21:44;97813.33;;;12.66;97.88
34921;BME280;21128;50.016;20.002;2024-03-23T08:24:11;97815.63;;;12.79;97.45
34921;BME280;21128;50.016;20.002;2024-03-23T08:26:38;97819.98;;;12.91;96.85
34921;BME280;21128;50.016;20.002;2024-03-23T08:29:06;97819.17;;;13.04;96.47
34921;BME280;21128;50.016;20.002;2024-03-23T08:31:33;97820.30;;;13.15;95.81
34921;BME280;21128;50.016;20.002;2024-03-23T08:34:00;97820.44;;;13.16;95.11
34921;BME280;21128;50.016;20.002;2024-03-23T08:36:26;97817.46;;;13.18;94.58
34921;BME280;21128;50.016;20.002;2024-03-23T08:38:53;97815.88;;;13.18;94.38
34921;BME280;21128;50.016;20.002;2024-03-23T08:41:21;97803.26;;;13.18;93.51
34921;BME280;21128;50.016;20.002;2024-03-23T08:43:48;97800.95;;;13.15;93.30
34921;BME280;21128;50.016;20.002;2024-03-23T08:46:16;97798.02;;;13.17;93.56
34921;BME280;21128;50.016;20.002;2024-03-23T08:48:44;97791.14;;;13.27;93.79
34921;BME280;21128;50.016;20.002;2024-03-23T08:51:13;97782.64;;;13.36;93.71
34921;BME280;21128;50.016;20.002;2024-03-23T08:53:40;97775.70;;;13.42;93.42
34921;BME280;21128;50.016;20.002;2024-03-23T08:56:08;97768.35;;;13.53;93.90
34921;BME280;21128;50.016;20.002;2024-03-23T08:58:37;97766.12;;;13.66;93.48
34921;BME280;21128;50.016;20.002;2024-03-23T09:01:09;97758.83;;;13.79;93.53
34921;BME280;21128;50.016;20.002;2024-03-23T09:03:36;97754.91;;;14.00;93.88
34921;BME280;21128;50.016;20.002;2024-03-23T09:06:11;97748.05;;;14.21;93.32
34921;BME280;21128;50.016;20.002;2024-03-23T09:08:39;97750.13;;;14.42;92.59
34921;BME280;21128;50.016;20.002;2024-03-23T09:11:09;97741.06;;;14.72;92.45
34921;BME280;21128;50.016;20.002;2024-03-23T09:13:36;97739.33;;;14.99;91.70
34921;BME280;21128;50.016;20.002;2024-03-23T09:16:05;97737.89;;;15.15;90.91
34921;BME280;21128;50.016;20.002;2024-03-23T09:18:33;97731.25;;;15.25;90.13
34921;BME280;21128;50.016;20.002;2024-03-23T09:21:02;97727.91;;;15.32;89.32
34921;BME280;21128;50.016;20.002;2024-03-23T09:23:29;97723.77;;;15.39;88.15
34921;BME280;21128;50.016;20.002;2024-03-23T09:25:56;97714.50;;;15.48;85.95
34921;BME280;21128;50.016;20.002;2024-03-23T09:28:23;97715.75;;;15.58;85.53
34921;BME280;21128;50.016;20.002;2024-03-23T09:30:50;97714.23;;;15.66;83.86
34921;BME280;21128;50.016;20.002;2024-03-23T09:33:16;97706.14;;;15.74;81.51
34921;BME280;21128;50.016;20.002;2024-03-23T09:35:44;97702.89;;;15.81;79.04
34921;BME280;21128;50.016;20.002;2024-03-23T09:38:11;97701.09;;;15.93;78.32
34921;BME280;21128;50.016;20.002;2024-03-23T09:40:41;97694.65;;;16.07;77.29
34921;BME280;21128;50.016;20.002;2024-03-23T09:43:12;97686.42;;;16.20;74.46
34921;BME280;21128;50.016;20.002;2024-03-23T09:45:40;97686.27;;;16.29;73.24
34921;BME280;21128;50.016;20.002;2024-03-23T09:48:10;97683.04;;;16.39;73.58
34921;BME280;21128;50.016;20.002;2024-03-23T09:50:41;97679.78;;;16.37;73.87
34921;BME280;21128;50.016;20.002;2024-03-23T09:53:13;97674.07;;;16.30;73.90
34921;BME280;21128;50.016;20.002;2024-03-23T09:55:41;97669.87;;;16.35;72.91
34921;BME280;21128;50.016;20.002;2024-03-23T09:58:12;97668.47;;;16.44;69.91
34921;BME280;21128;50.016;20.002;2024-03-23T10:00:39;97661.66;;;16.56;67.58
34921;BME280;21128;50.016;20.002;2024-03-23T10:03:06;97651.88;;;16.70;65.04
34921;BME280;21128;50.016;20.002;2024-03-23T10:05:33;97642.20;;;16.84;64.79
34921;BME280;21128;50.016;20.002;2024-03-23T10:10:42;97630.05;;;17.14;62.20
34921;BME280;21128;50.016;20.002;2024-03-23T10:13:09;97624.59;;;17.27;62.06
34921;BME280;21128;50.016;20.002;2024-03-23T10:15:36;97620.95;;;17.42;61.49
34921;BME280;21128;50.016;20.002;2024-03-23T10:20:42;97610.46;;;17.71;54.71
34921;BME280;21128;50.016;20.002;2024-03-23T10:23:16;97601.63;;;17.79;55.50
34921;BME280;21128;50.016;20.002;2024-03-23T10:25:43;97601.41;;;18.07;54.97
34921;BME280;21128;50.016;20.002;2024-03-23T10:28:10;97595.29;;;18.33;54.12
34921;BME280;21128;50.016;20.002;2024-03-23T10:30:38;97595.90;;;18.62;53.51
34921;BME280;21128;50.016;20.002;2024-03-23T10:35:36;97580.30;;;18.92;46.59
34921;BME280;21128;50.016;20.002;2024-03-23T10:38:07;97576.31;;;19.32;48.68
34921;BME280;21128;50.016;20.002;2024-03-23T10:40:35;97576.81;;;19.57;45.36
34921;BME280;21128;50.016;20.002;2024-03-23T10:43:06;97570.05;;;19.43;44.28
34921;BME280;21128;50.016;20.002;2024-03-23T10:45:33;97560.46;;;19.52;46.61
34921;BME280;21128;50.016;20.002;2024-03-23T10:47:59;97556.62;;;19.76;46.86
34921;BME280;21128;50.016;20.002;2024-03-23T10:50:27;97544.09;;;20.00;47.16
34921;BME280;21128;50.016;20.002;2024-03-23T10:52:54;97541.30;;;20.21;47.47
34921;BME280;21128;50.016;20.002;2024-03-23T10:55:26;97533.45;;;20.43;46.89
34921;BME280;21128;50.016;20.002;2024-03-23T10:57:57;97521.98;;;20.57;46.67
34921;BME280;21128;50.016;20.002;2024-03-23T11:00:26;97513.17;;;20.66;45.46
34921;BME280;21128;50.016;20.002;2024-03-23T11:02:53;97497.66;;;20.67;45.20
34921;BME280;21128;50.016;20.002;2024-03-23T11:07:52;97487.88;;;20.96;44.32
34921;BME280;21128;50.016;20.002;2024-03-23T11:10:26;97483.64;;;20.95;44.16
34921;BME280;21128;50.016;20.002;2024-03-23T11:12:54;97484.89;;;20.69;41.12
34921;BME280;21128;50.016;20.002;2024-03-23T11:15:20;97486.19;;;20.34;40.55
34921;BME280;21128;50.016;20.002;2024-03-23T11:18:04;97480.28;;;20.18;41.70
34921;BME280;21128;50.016;20.002;2024-03-23T11:20:32;97481.31;;;20.17;40.56
34921;BME280;21128;50.016;20.002;2024-03-23T11:23:00;97478.16;;;19.96;39.39
34921;BME280;21128;50.016;20.002;2024-03-23T11:25:37;97474.02;;;19.92;40.36
34921;BME280;21128;50.016;20.002;2024-03-23T11:28:11;97469.73;;;20.06;40.24
34921;BME280;21128;50.016;20.002;2024-03-23T11:30:39;97466.19;;;20.11;39.44
34921;BME280;21128;50.016;20.002;2024-03-23T11:33:06;97454.16;;;20.09;38.70
34921;BME280;21128;50.016;20.002;2024-03-23T11:35:34;97447.96;;;20.13;39.06
34921;BME280;21128;50.016;20.002;2024-03-23T11:40:40;97434.41;;;20.70;39.98
34921;BME280;21128;50.016;20.002;2024-03-23T11:45:47;97415.23;;;21.15;38.48
34921;BME280;21128;50.016;20.002;2024-03-23T11:48:15;97415.62;;;21.09;37.88
34921;BME280;21128;50.016;20.002;2024-03-23T11:50:51;97410.85;;;20.92;38.48
34921;BME280;21128;50.016;20.002;2024-03-23T11:53:20;97401.77;;;20.95;39.39
34921;BME280;21128;50.016;20.002;2024-03-23T11:55:57;97400.85;;;21.03;39.42
34921;BME280;21128;50.016;20.002;2024-03-23T11:58:26;97391.98;;;20.89;38.78
34921;BME280;21128;50.016;20.002;2024-03-23T12:00:57;97383.63;;;21.07;40.57
34921;BME280;21128;50.016;20.002;2024-03-23T12:03:25;97375.56;;;21.54;40.94
34921;BME280;21128;50.016;20.002;2024-03-23T12:05:58;97367.15;;;21.97;40.26
34921;BME280;21128;50.016;20.002;2024-03-23T12:08:30;97355.01;;;22.13;38.94
34921;BME280;21128;50.016;20.002;2024-03-23T12:11:11;97345.98;;;22.21;39.57
34921;BME280;21128;50.016;20.002;2024-03-23T12:13:40;97334.48;;;22.38;39.19
34921;BME280;21128;50.016;20.002;2024-03-23T12:16:20;97319.37;;;22.38;39.00
34921;BME280;21128;50.016;20.002;2024-03-23T12:18:48;97311.98;;;22.49;38.79
34921;BME280;21128;50.016;20.002;2024-03-23T12:21:16;97302.38;;;22.73;38.94
34921;BME280;21128;50.016;20.002;2024-03-23T12:23:44;97290.44;;;23.28;39.38
34921;BME280;21128;50.016;20.002;2024-03-23T12:26:13;97287.13;;;23.81;38.01
34921;BME280;21128;50.016;20.002;2024-03-23T12:28:40;97287.90;;;23.91;37.33
34921;BME280;21128;50.016;20.002;2024-03-23T12:31:06;97286.79;;;23.47;35.38
34921;BME280;21128;50.016;20.002;2024-03-23T12:33:33;97282.77;;;23.22;35.03
34921;BME280;21128;50.016;20.002;2024-03-23T12:36:00;97278.70;;;23.23;34.77
34921;BME280;21128;50.016;20.002;2024-03-23T12:38:26;97271.83;;;23.03;34.64
34921;BME280;21128;50.016;20.002;2024-03-23T12:40:53;97267.49;;;23.13;35.41
34921;BME280;21128;50.016;20.002;2024-03-23T12:43:20;97268.08;;;23.01;34.80
34921;BME280;21128;50.016;20.002;2024-03-23T12:45:50;97264.21;;;22.83;35.37
34921;BME280;21128;50.016;20.002;2024-03-23T12:48:16;97258.19;;;22.65;36.01
34921;BME280;21128;50.016;20.002;2024-03-23T12:50:43;97269.27;;;22.35;34.68
34921;BME280;21128;50.016;20.002;2024-03-23T12:53:10;97255.00;;;22.38;36.09
34921;BME280;21128;50.016;20.002;2024-03-23T12:55:37;97247.23;;;22.93;36.86
34921;BME280;21128;50.016;20.002;2024-03-23T12:58:04;97235.61;;;23.56;37.71
34921;BME280;21128;50.016;20.002;2024-03-23T13:00:31;97224.84;;;24.16;37.55
34921;BME280;21128;50.016;20.002;2024-03-23T13:02:58;97217.52;;;24.57;37.92
34921;BME280;21128;50.016;20.002;2024-03-23T13:05:24;97214.43;;;24.93;37.69
34921;BME280;21128;50.016;20.002;2024-03-23T13:07:51;97212.14;;;24.88;34.32
34921;BME280;21128;50.016;20.002;2024-03-23T13:10:18;97193.11;;;24.50;33.56
34921;BME280;21128;50.016;20.002;2024-03-23T13:12:45;97183.61;;;24.39;33.29
34921;BME280;21128;50.016;20.002;2024-03-23T13:15:11;97184.91;;;24.63;34.36
34921;BME280;21128;50.016;20.002;2024-03-23T13:17:38;97170.37;;;24.92;35.19
34921;BME280;21128;50.016;20.002;2024-03-23T13:20:05;97162.49;;;25.05;35.12
34921;BME280;21128;50.016;20.002;2024-03-23T13:22:32;97163.27;;;24.97;34.82
34921;BME280;21128;50.016;20.002;2024-03-23T13:24:59;97152.26;;;24.82;34.94
34921;BME280;21128;50.016;20.002;2024-03-23T13:27:26;97154.98;;;24.68;34.68
34921;BME280;21128;50.016;20.002;2024-03-23T13:29:53;97149.05;;;24.60;35.32
34921;BME280;21128;50.016;20.002;2024-03-23T13:32:19;97138.30;;;24.60;35.59
34921;BME280;21128;50.016;20.002;2024-03-23T13:34:46;97133.88;;;24.43;35.22
34921;BME280;21128;50.016;20.002;2024-03-23T13:37:17;97131.77;;;24.07;35.56
34921;BME280;21128;50.016;20.002;2024-03-23T13:39:43;97130.19;;;23.92;35.56
34921;BME280;21128;50.016;20.002;2024-03-23T13:42:10;97131.05;;;23.89;35.67
34921;BME280;21128;50.016;20.002;2024-03-23T13:44:39;97126.65;;;23.69;35.70
34921;BME280;21128;50.016;20.002;2024-03-23T13:47:05;97124.44;;;23.62;35.98
34921;BME280;21128;50.016;20.002;2024-03-23T13:49:34;97115.70;;;23.77;36.22
34921;BME280;21128;50.016;20.002;2024-03-23T13:52:01;97109.90;;;24.00;36.48
34921;BME280;21128;50.016;20.002;2024-03-23T13:54:28;97103.97;;;24.11;35.69
34921;BME280;21128;50.016;20.002;2024-03-23T13:56:56;97105.53;;;24.10;35.60
34921;BME280;21128;50.016;20.002;2024-03-23T13:59:23;97097.75;;;24.13;34.98